Time;durP1;ratioP1;P1;durP2;ratioP2;P2;SDS_P1;SDS_P2;PMS_P1;PMS_P2;Temp;Humidity;BMP_temperature;BMP_pressure;BME280_temperature;BME280_humidity;BME280_pressure;Samples;Min_cycle;Max_cycle;Signal;HPM_P1;HPM_P2
2023/10/19 00:01:09;;;;;;;15.48;12.95;;;9.90;99.90;;;;;;4919648;29;20576;-81
2023/10/19 00:03:38;;;;;;;12.77;11.40;;;9.90;99.90;;;;;;4925355;29;20609;-81
2023/10/19 00:06:05;;;;;;;15.02;13.45;;;9.90;99.90;;;;;;4937823;29;20239;-81
2023/10/19 00:08:41;;;;;;;13.93;12.52;;;9.90;99.90;;;;;;4938552;29;20245;-81
2023/10/19 00:11:08;;;;;;;13.80;12.50;;;9.90;99.90;;;;;;4937726;29;20224;-81
2023/10/19 00:13:37;;;;;;;14.25;12.85;;;9.80;99.90;;;;;;4937593;29;20308;-80
2023/10/19 00:16:11;;;;;;;20.42;12.63;;;9.90;99.90;;;;;;4937976;29;20244;-83
2023/10/19 00:18:59;;;;;;;14.57;13.07;;;9.80;99.90;;;;;;4938466;29;20237;-84
2023/10/19 00:21:26;;;;;;;17.65;13.02;;;9.90;99.90;;;;;;4938589;29;20213;-82
2023/10/19 00:23:56;;;;;;;16.60;12.32;;;9.90;99.90;;;;;;4936651;29;20239;-81
2023/10/19 00:26:25;;;;;;;14.30;11.60;;;9.90;99.90;;;;;;4928604;29;20700;-83
2023/10/19 00:28:55;;;;;;;17.63;13.13;;;9.90;99.90;;;;;;4927897;29;20220;-81
2023/10/19 00:31:21;;;;;;;15.05;12.88;;;9.90;99.90;;;;;;4928517;29;20232;-81
2023/10/19 00:33:51;;;;;;;15.23;13.27;;;9.90;99.90;;;;;;4936550;29;20229;-81
2023/10/19 00:36:20;;;;;;;21.73;13.43;;;9.90;99.90;;;;;;4938142;29;20484;-81
2023/10/19 00:38:52;;;;;;;15.27;13.65;;;9.90;99.90;;;;;;4935747;29;20315;-82
2023/10/19 00:41:28;;;;;;;15.13;13.57;;;9.90;99.90;;;;;;4936383;29;20634;-81
2023/10/19 00:44:02;;;;;;;14.85;13.10;;;9.90;99.90;;;;;;4937926;29;20303;-81
2023/10/19 00:46:39;;;;;;;16.95;14.15;;;9.90;99.90;;;;;;4938440;29;20324;-81
2023/10/19 00:49:07;;;;;;;18.13;14.63;;;9.80;99.90;;;;;;4936425;29;20224;-84
2023/10/19 00:51:50;;;;;;;15.02;13.27;;;9.80;99.90;;;;;;4937735;29;20625;-81
2023/10/19 00:54:26;;;;;;;17.00;13.30;;;9.70;99.90;;;;;;4938427;29;20758;-84
2023/10/19 00:56:56;;;;;;;16.30;14.50;;;9.70;99.90;;;;;;4973142;28;20227;-85
2023/10/19 00:59:24;;;;;;;15.65;13.98;;;9.70;99.90;;;;;;4966567;28;20227;-81
2023/10/19 01:01:54;;;;;;;16.10;14.40;;;9.70;99.90;;;;;;4975463;28;20227;-81
2023/10/19 01:04:22;;;;;;;14.95;13.35;;;9.70;99.90;;;;;;4976004;28;20278;-81
2023/10/19 01:07:04;;;;;;;17.00;13.77;;;9.70;99.90;;;;;;4975425;28;20327;-81
2023/10/19 01:09:34;;;;;;;20.48;15.65;;;9.60;99.90;;;;;;4976086;28;20227;-81
2023/10/19 01:12:18;;;;;;;19.00;14.98;;;9.60;99.90;;;;;;4968339;28;20219;-84
2023/10/19 01:14:45;;;;;;;15.77;13.82;;;9.60;99.90;;;;;;4978014;28;20314;-85
2023/10/19 01:17:15;;;;;;;15.43;13.30;;;9.70;99.90;;;;;;4976685;28;20310;-81
2023/10/19 01:19:43;;;;;;;16.88;14.57;;;9.70;99.90;;;;;;4964956;28;20227;-85
2023/10/19 01:22:16;;;;;;;17.15;14.20;;;9.70;99.90;;;;;;4975981;28;20639;-81
2023/10/19 01:24:44;;;;;;;16.88;15.02;;;9.70;99.90;;;;;;4974515;28;20236;-81
2023/10/19 01:27:13;;;;;;;18.50;14.15;;;9.60;99.90;;;;;;4975710;28;20230;-81
2023/10/19 01:29:43;;;;;;;15.25;13.48;;;9.60;99.90;;;;;;4977564;28;20238;-84
2023/10/19 01:32:12;;;;;;;13.27;11.90;;;9.60;99.90;;;;;;4967558;28;20247;-85
2023/10/19 01:34:39;;;;;;;19.33;13.85;;;9.70;99.90;;;;;;4976695;28;20259;-84
2023/10/19 01:37:06;;;;;;;17.60;14.05;;;9.60;99.90;;;;;;4976879;28;20223;-81
2023/10/19 01:39:35;;;;;;;20.33;14.07;;;9.50;99.90;;;;;;4979801;28;20227;-84
2023/10/19 01:42:05;;;;;;;17.35;13.10;;;9.60;99.90;;;;;;4963084;28;20313;-84
2023/10/19 01:44:31;;;;;;;15.57;13.27;;;9.60;99.90;;;;;;4978301;28;20232;-81
2023/10/19 01:47:00;;;;;;;18.38;14.57;;;9.60;99.90;;;;;;4974990;28;20414;-81
2023/10/19 01:49:26;;;;;;;17.65;13.98;;;9.60;99.90;;;;;;4975591;28;20228;-84
2023/10/19 01:51:54;;;;;;;16.20;13.93;;;9.60;99.90;;;;;;4974934;28;20558;-81
2023/10/19 01:54:23;;;;;;;21.67;14.80;;;9.60;99.90;;;;;;4975986;28;20537;-84
2023/10/19 01:56:54;;;;;;;19.63;15.30;;;9.60;99.90;;;;;;4977156;28;20227;-81
2023/10/19 01:59:26;;;;;;;19.33;14.52;;;9.70;99.90;;;;;;4977197;28;20618;-84
2023/10/19 02:02:09;;;;;;;16.27;14.52;;;9.60;99.90;;;;;;4980450;28;20223;-83
2023/10/19 02:04:36;;;;;;;17.02;14.02;;;9.60;99.90;;;;;;4976588;28;20286;-80
2023/10/19 02:07:02;;;;;;;18.30;15.60;;;9.60;99.90;;;;;;4975040;28;20226;-81
2023/10/19 02:09:32;;;;;;;17.67;14.20;;;9.50;99.90;;;;;;4976672;28;20223;-84
2023/10/19 02:11:58;;;;;;;17.50;14.73;;;9.60;99.90;;;;;;4975774;28;20474;-81
2023/10/19 02:14:29;;;;;;;20.10;15.77;;;9.70;99.90;;;;;;4975545;28;20231;-85
2023/10/19 02:16:58;;;;;;;19.05;15.00;;;9.60;99.90;;;;;;4981768;28;20224;-84
2023/10/19 02:19:32;;;;;;;17.80;14.00;;;9.60;99.90;;;;;;4963514;28;20219;-83
2023/10/19 02:22:03;;;;;;;16.05;14.00;;;9.70;99.90;;;;;;4965389;28;20226;-84
2023/10/19 02:24:43;;;;;;;20.35;14.43;;;9.70;99.90;;;;;;4974594;28;20238;-83
2023/10/19 02:27:29;;;;;;;21.75;13.90;;;9.70;99.90;;;;;;4957007;28;20805;-84
2023/10/19 02:29:58;;;;;;;19.83;15.05;;;9.70;99.90;;;;;;4974151;28;20218;-81
2023/10/19 02:32:25;;;;;;;16.52;14.35;;;9.70;99.90;;;;;;4975601;28;20227;-85
2023/10/19 02:34:53;;;;;;;22.83;14.45;;;9.80;99.90;;;;;;4972979;28;20242;-84
2023/10/19 02:37:20;;;;;;;21.10;14.85;;;9.70;99.90;;;;;;4974749;28;20227;-85
2023/10/19 02:39:50;;;;;;;18.45;14.93;;;9.80;99.90;;;;;;4974448;28;20270;-84
2023/10/19 02:42:17;;;;;;;19.65;15.45;;;9.70;99.90;;;;;;4974756;28;20591;-81
2023/10/19 02:44:44;;;;;;;21.90;16.13;;;9.70;99.90;;;;;;4973072;28;20227;-85
2023/10/19 02:47:11;;;;;;;25.63;15.85;;;9.70;99.90;;;;;;4974908;28;20278;-80
2023/10/19 02:49:39;;;;;;;20.08;16.13;;;9.70;99.90;;;;;;4974475;28;20235;-80
2023/10/19 02:52:05;;;;;;;18.38;15.52;;;9.70;99.90;;;;;;4974351;28;20293;-85
2023/10/19 02:54:34;;;;;;;18.05;14.88;;;9.70;99.90;;;;;;4974238;28;20238;-81
2023/10/19 02:57:00;;;;;;;17.52;13.88;;;9.80;99.90;;;;;;4974031;28;20235;-84
2023/10/19 02:59:29;;;;;;;17.95;16.05;;;9.70;99.90;;;;;;4973924;28;20314;-80
2023/10/19 03:02:06;;;;;;;20.00;16.48;;;9.70;99.90;;;;;;4965127;28;20242;-80
2023/10/19 03:04:35;;;;;;;20.10;13.98;;;9.70;99.90;;;;;;4964427;28;20237;-84
2023/10/19 03:07:02;;;;;;;20.85;14.70;;;9.70;99.90;;;;;;4973634;28;20254;-80
2023/10/19 03:09:29;;;;;;;19.27;15.13;;;9.60;99.90;;;;;;4974275;28;20227;-84
2023/10/19 03:11:59;;;;;;;20.45;16.33;;;9.70;99.90;;;;;;4974180;28;20231;-79
2023/10/19 03:14:26;;;;;;;17.73;14.70;;;9.60;99.90;;;;;;4974619;28;20228;-84
2023/10/19 03:16:54;;;;;;;17.02;13.98;;;9.60;99.90;;;;;;4973881;28;20305;-80
2023/10/19 03:19:22;;;;;;;19.52;14.20;;;9.60;99.90;;;;;;4974673;28;20567;-85
2023/10/19 03:21:49;;;;;;;23.88;17.67;;;9.70;99.90;;;;;;4975509;28;20322;-85
2023/10/19 03:24:35;;;;;;;19.08;15.32;;;9.70;99.90;;;;;;4976570;28;20227;-84
2023/10/19 03:27:01;;;;;;;17.58;13.80;;;9.70;99.90;;;;;;4977660;28;20227;-80
2023/10/19 03:29:31;;;;;;;19.60;14.52;;;9.80;99.90;;;;;;4975255;28;20251;-80
2023/10/19 03:31:59;;;;;;;18.17;14.85;;;9.80;99.90;;;;;;4975208;28;20315;-85
2023/10/19 03:34:31;;;;;;;16.67;14.30;;;9.80;99.90;;;;;;4976167;28;20576;-84
2023/10/19 03:37:05;;;;;;;19.70;15.93;;;9.80;99.90;;;;;;4966386;28;20239;-81
2023/10/19 03:39:34;;;;;;;16.25;13.80;;;9.80;99.90;;;;;;4975213;28;20228;-80
2023/10/19 03:42:02;;;;;;;20.27;14.70;;;9.80;99.90;;;;;;4974284;28;20253;-85
2023/10/19 03:44:39;;;;;;;20.20;16.38;;;9.80;99.90;;;;;;4975438;28;20228;-81
2023/10/19 03:47:11;;;;;;;21.15;15.77;;;9.80;99.90;;;;;;4974265;28;20237;-80
2023/10/19 03:49:39;;;;;;;19.83;16.55;;;9.90;99.90;;;;;;4977696;28;20546;-81
2023/10/19 03:52:21;;;;;;;18.67;15.65;;;9.80;99.90;;;;;;4977213;28;20594;-84
2023/10/19 03:54:48;;;;;;;22.35;16.60;;;9.90;99.90;;;;;;4977459;28;20251;-80
2023/10/19 03:57:19;;;;;;;20.30;15.82;;;9.90;99.90;;;;;;4976971;28;20238;-80
2023/10/19 03:59:49;;;;;;;23.52;16.63;;;9.90;99.90;;;;;;4977588;28;20681;-81
2023/10/19 04:02:20;;;;;;;20.85;16.17;;;9.80;99.90;;;;;;4976205;28;20219;-80
2023/10/19 04:04:48;;;;;;;19.00;15.70;;;9.80;99.90;;;;;;4977358;28;20290;-81
2023/10/19 04:07:21;;;;;;;17.88;14.50;;;9.70;99.90;;;;;;4976901;28;20375;-81
2023/10/19 04:09:59;;;;;;;20.73;16.80;;;9.70;99.90;;;;;;4976909;28;20694;-84
2023/10/19 04:12:28;;;;;;;18.17;16.27;;;9.70;99.90;;;;;;4978198;28;20655;-81
2023/10/19 04:14:56;;;;;;;23.38;16.13;;;9.60;99.90;;;;;;4977823;28;20227;-80
2023/10/19 04:17:23;;;;;;;22.42;16.00;;;9.60;99.90;;;;;;4976673;28;20694;-80
2023/10/19 04:19:51;;;;;;;19.38;16.92;;;9.60;99.90;;;;;;4978878;28;20682;-84
2023/10/19 04:22:23;;;;;;;20.55;17.15;;;9.60;99.90;;;;;;4988935;28;20235;-83
2023/10/19 04:24:50;;;;;;;19.73;16.33;;;9.50;99.90;;;;;;4982607;28;20624;-80
2023/10/19 04:27:19;;;;;;;19.23;17.33;;;9.50;99.90;;;;;;4976532;28;20235;-81
2023/10/19 04:29:49;;;;;;;19.92;15.95;;;9.50;99.90;;;;;;4978433;28;20265;-85
2023/10/19 04:32:24;;;;;;;26.05;17.45;;;9.50;99.90;;;;;;4976451;28;20705;-81
2023/10/19 04:34:52;;;;;;;20.73;16.67;;;9.50;99.90;;;;;;4976229;28;20231;-80
2023/10/19 04:37:23;;;;;;;19.48;17.45;;;9.40;99.90;;;;;;4975923;28;20228;-84
2023/10/19 04:39:52;;;;;;;20.38;16.65;;;9.30;99.90;;;;;;4977369;28;20219;-84
2023/10/19 04:42:22;;;;;;;24.48;18.30;;;9.30;99.90;;;;;;4975954;28;20294;-85
2023/10/19 04:44:49;;;;;;;24.48;17.63;;;9.30;99.90;;;;;;4976319;28;20232;-80
2023/10/19 04:47:23;;;;;;;23.63;18.13;;;9.30;99.90;;;;;;4975736;28;20547;-83
2023/10/19 04:49:50;;;;;;;22.85;17.50;;;9.30;99.90;;;;;;4966504;28;20220;-80
2023/10/19 04:52:39;;;;;;;23.27;17.95;;;9.20;99.90;;;;;;4975151;28;20595;-80
2023/10/19 04:55:07;;;;;;;21.75;16.85;;;9.20;99.90;;;;;;4963107;28;20239;-80
2023/10/19 04:57:34;;;;;;;23.63;17.88;;;9.20;99.90;;;;;;4965513;28;20259;-84
2023/10/19 05:00:02;;;;;;;22.40;17.42;;;9.10;99.90;;;;;;4975298;28;20304;-80
2023/10/19 05:02:29;;;;;;;22.42;17.23;;;9.20;99.90;;;;;;4975887;28;20693;-84
2023/10/19 05:04:56;;;;;;;22.80;17.90;;;9.20;99.90;;;;;;4975610;28;20224;-84
2023/10/19 05:07:23;;;;;;;20.95;18.02;;;9.20;99.90;;;;;;4965307;28;20276;-84
2023/10/19 05:09:53;;;;;;;21.38;16.77;;;9.20;99.90;;;;;;4976152;28;20255;-84
2023/10/19 05:12:21;;;;;;;22.02;17.27;;;9.30;99.90;;;;;;4975496;28;20234;-84
2023/10/19 05:14:48;;;;;;;24.25;18.92;;;9.30;99.90;;;;;;4976217;28;20538;-84
2023/10/19 05:17:15;;;;;;;25.10;17.42;;;9.20;99.90;;;;;;4974675;28;20231;-84
2023/10/19 05:19:43;;;;;;;22.58;19.50;;;9.30;99.90;;;;;;4975919;28;20674;-81
2023/10/19 05:22:11;;;;;;;23.33;17.13;;;9.20;99.90;;;;;;4975745;28;20224;-80
2023/10/19 05:24:38;;;;;;;27.00;18.60;;;9.30;99.90;;;;;;4975436;28;20235;-80
2023/10/19 05:27:09;;;;;;;21.27;18.90;;;9.30;99.90;;;;;;4974989;28;20224;-80
2023/10/19 05:29:41;;;;;;;23.63;17.77;;;9.30;99.90;;;;;;4975181;28;20247;-83
2023/10/19 05:32:24;;;;;;;23.58;18.48;;;9.20;99.90;;;;;;4975551;28;20223;-81
2023/10/19 05:34:50;;;;;;;23.30;18.90;;;9.20;99.90;;;;;;4975077;28;20231;-81
2023/10/19 05:37:17;;;;;;;25.75;19.30;;;9.20;99.90;;;;;;4974921;28;20223;-80
2023/10/19 05:39:45;;;;;;;22.80;18.35;;;9.10;99.90;;;;;;4974755;28;20705;-84
2023/10/19 05:42:13;;;;;;;28.35;20.63;;;9.00;99.90;;;;;;4972523;28;20306;-80
2023/10/19 05:44:40;;;;;;;27.52;19.33;;;9.10;99.90;;;;;;4975358;28;20231;-80
2023/10/19 05:47:07;;;;;;;23.35;18.98;;;9.00;99.90;;;;;;4974673;28;20223;-80
2023/10/19 05:49:34;;;;;;;28.08;21.40;;;9.10;99.90;;;;;;4974996;28;20708;-84
2023/10/19 05:52:03;;;;;;;19.40;16.98;;;9.00;99.90;;;;;;4974903;28;20685;-83
2023/10/19 05:54:30;;;;;;;22.35;18.92;;;9.00;99.90;;;;;;4975073;28;20235;-80
2023/10/19 05:56:57;;;;;;;26.50;19.10;;;9.00;99.90;;;;;;4974923;28;20318;-80
2023/10/19 05:59:26;;;;;;;30.27;19.70;;;9.00;99.90;;;;;;4974950;28;20950;-80
2023/10/19 06:01:53;;;;;;;25.80;20.23;;;9.00;99.90;;;;;;4975085;28;20227;-81
2023/10/19 06:04:20;;;;;;;25.15;20.88;;;9.00;99.90;;;;;;4963878;28;20227;-81
2023/10/19 06:06:48;;;;;;;23.73;18.65;;;8.90;99.90;;;;;;4974974;28;20226;-81
2023/10/19 06:09:16;;;;;;;26.95;19.75;;;9.00;99.90;;;;;;4973545;28;20553;-81
2023/10/19 06:11:43;;;;;;;27.80;21.20;;;9.00;99.90;;;;;;4975025;28;20684;-81
2023/10/19 06:14:11;;;;;;;27.70;19.52;;;9.00;99.90;;;;;;4974403;28;20220;-80
2023/10/19 06:16:39;;;;;;;27.02;20.90;;;9.00;99.90;;;;;;4975161;28;20219;-80
2023/10/19 06:19:06;;;;;;;33.03;21.80;;;9.00;99.90;;;;;;4973673;28;20281;-82
2023/10/19 06:21:34;;;;;;;31.30;21.67;;;9.00;99.90;;;;;;4975048;28;20310;-84
2023/10/19 06:24:02;;;;;;;25.60;19.50;;;8.90;99.90;;;;;;4963261;28;20224;-83
2023/10/19 06:26:32;;;;;;;27.70;20.77;;;9.00;99.90;;;;;;4974352;28;20231;-84
2023/10/19 06:28:59;;;;;;;25.73;19.95;;;9.00;99.90;;;;;;4974642;28;20231;-83
2023/10/19 06:31:29;;;;;;;27.10;22.05;;;9.00;99.90;;;;;;4974463;28;20223;-83
2023/10/19 06:33:58;;;;;;;26.65;19.98;;;8.90;99.90;;;;;;4975025;28;20252;-85
2023/10/19 06:36:25;;;;;;;29.27;21.17;;;9.00;99.90;;;;;;4974442;28;20239;-84
2023/10/19 06:39:14;;;;;;;22.85;20.45;;;9.00;99.90;;;;;;4973478;28;20333;-84
2023/10/19 06:41:47;;;;;;;26.15;21.45;;;9.00;99.90;;;;;;4964013;28;20302;-81
2023/10/19 06:44:22;;;;;;;26.75;19.35;;;8.90;99.90;;;;;;4973943;28;20235;-84
2023/10/19 06:46:49;;;;;;;34.70;20.50;;;8.90;99.90;;;;;;4974761;28;20723;-85
2023/10/19 06:49:19;;;;;;;49.38;24.08;;;8.90;99.90;;;;;;4974464;28;20302;-81
2023/10/19 06:55:23;;;;;;;26.92;21.38;;;8.90;99.90;;;;;;4933343;28;20255;-81
2023/10/19 06:57:52;;;;;;;23.90;20.10;;;8.80;99.90;;;;;;4974151;28;20223;-84
2023/10/19 07:00:21;;;;;;;29.92;23.55;;;8.70;99.90;;;;;;4974951;28;20819;-84
2023/10/19 07:02:50;;;;;;;29.17;22.42;;;8.70;99.90;;;;;;4973907;28;20235;-85
2023/10/19 07:05:21;;;;;;;26.52;20.58;;;8.80;99.90;;;;;;4974322;28;20792;-81
2023/10/19 07:07:49;;;;;;;27.80;22.25;;;8.80;99.90;;;;;;4974327;28;20710;-85
2023/10/19 07:10:17;;;;;;;49.53;24.73;;;8.80;99.90;;;;;;4974550;28;20228;-83
2023/10/19 07:12:47;;;;;;;31.88;22.08;;;8.80;99.90;;;;;;4974474;28;20262;-83
2023/10/19 07:15:15;;;;;;;27.42;21.85;;;8.80;99.90;;;;;;4975270;28;20230;-83
2023/10/19 07:17:43;;;;;;;35.63;21.70;;;8.80;99.90;;;;;;4975310;28;20231;-84
2023/10/19 07:20:25;;;;;;;39.33;21.48;;;8.80;99.90;;;;;;4975396;28;20258;-84
2023/10/19 07:22:53;;;;;;;66.55;25.88;;;8.80;99.90;;;;;;4975886;28;20227;-84
2023/10/19 07:25:21;;;;;;;41.65;22.85;;;8.80;99.90;;;;;;4983161;28;20231;-79
2023/10/19 07:27:49;;;;;;;34.47;21.33;;;8.80;99.90;;;;;;4984593;28;20726;-84
2023/10/19 07:30:21;;;;;;;38.00;21.85;;;8.90;99.90;;;;;;4993782;28;20227;-82
2023/10/19 07:32:54;;;;;;;29.88;19.70;;;9.00;99.90;;;;;;4997232;28;20283;-84
2023/10/19 07:35:25;;;;;;;30.77;21.75;;;8.90;99.90;;;;;;4995419;28;20248;-83
2023/10/19 07:37:56;;;;;;;24.98;20.27;;;9.00;99.90;;;;;;4997895;28;20267;-84
2023/10/19 07:40:24;;;;;;;27.75;20.60;;;8.90;99.90;;;;;;4996828;28;20246;-84
2023/10/19 07:42:52;;;;;;;29.08;22.30;;;9.00;99.90;;;;;;4993617;28;20235;-81
2023/10/19 07:45:20;;;;;;;25.80;20.08;;;9.00;99.90;;;;;;4989656;28;20238;-81
2023/10/19 07:47:49;;;;;;;27.73;20.65;;;9.10;99.90;;;;;;4984042;28;20242;-84
2023/10/19 07:50:18;;;;;;;30.75;21.52;;;9.10;99.90;;;;;;4981780;28;20235;-85
2023/10/19 07:52:48;;;;;;;27.63;19.73;;;9.20;99.90;;;;;;4970638;28;20251;-85
2023/10/19 07:55:17;;;;;;;24.65;20.25;;;9.20;99.90;;;;;;4979480;28;20271;-85
2023/10/19 07:57:44;;;;;;;32.63;22.13;;;9.20;99.90;;;;;;4979851;28;20228;-82
2023/10/19 08:00:36;;;;;;;25.77;19.38;;;9.20;99.90;;;;;;4978975;28;20285;-81
2023/10/19 08:03:05;;;;;;;36.15;22.77;;;9.20;99.90;;;;;;4974284;28;20227;-81
2023/10/19 08:05:33;;;;;;;26.50;21.92;;;9.20;99.90;;;;;;4978597;28;20235;-85
2023/10/19 08:08:06;;;;;;;23.35;19.60;;;9.30;99.90;;;;;;4978035;28;20239;-81
2023/10/19 08:10:35;;;;;;;25.10;20.73;;;9.40;99.90;;;;;;4978422;28;20674;-84
2023/10/19 08:13:02;;;;;;;22.27;19.00;;;9.40;99.90;;;;;;4978317;28;20227;-84
2023/10/19 08:15:30;;;;;;;30.35;19.15;;;9.50;99.90;;;;;;4978253;28;20235;-81
2023/10/19 08:21:29;;;;;;;24.15;19.60;;;9.60;99.90;;;;;;4962542;28;20228;-81
2023/10/19 08:23:57;;;;;;;26.13;19.05;;;9.60;99.90;;;;;;4977449;28;20223;-82
2023/10/19 08:26:26;;;;;;;25.33;19.70;;;9.50;99.90;;;;;;4978489;28;20294;-81
2023/10/19 08:28:55;;;;;;;40.83;20.70;;;9.40;99.90;;;;;;4977457;28;20235;-84
2023/10/19 08:31:24;;;;;;;36.50;21.20;;;9.50;99.90;;;;;;4977850;28;20227;-85
2023/10/19 08:33:51;;;;;;;63.20;21.83;;;9.50;99.90;;;;;;4977195;28;20679;-84
2023/10/19 08:36:20;;;;;;;47.00;22.58;;;9.50;99.90;;;;;;4978031;28;20235;-84
2023/10/19 08:38:47;;;;;;;30.92;20.95;;;9.60;99.90;;;;;;4977145;28;20234;-85
2023/10/19 08:41:22;;;;;;;26.40;19.95;;;9.60;99.90;;;;;;4977705;28;20772;-80
2023/10/19 08:43:50;;;;;;;30.80;21.80;;;9.70;99.90;;;;;;4978039;28;20234;-80
2023/10/19 08:46:18;;;;;;;29.38;22.23;;;9.70;99.90;;;;;;4968898;28;20237;-83
2023/10/19 08:48:50;;;;;;;28.73;18.58;;;9.60;99.90;;;;;;4978075;28;20571;-81
2023/10/19 08:51:18;;;;;;;25.50;18.50;;;9.50;99.90;;;;;;4978535;28;20223;-83
2023/10/19 08:53:46;;;;;;;27.77;20.90;;;9.60;99.90;;;;;;4978030;28;20224;-81
2023/10/19 08:56:16;;;;;;;25.88;20.38;;;9.60;99.90;;;;;;4976679;28;20267;-84
2023/10/19 08:58:43;;;;;;;22.00;18.02;;;9.60;99.90;;;;;;4980714;28;20678;-84
2023/10/19 09:01:12;;;;;;;24.77;18.83;;;9.60;99.90;;;;;;4979857;28;20293;-80
2023/10/19 09:03:46;;;;;;;22.00;19.65;;;9.60;99.90;;;;;;4975998;28;20255;-80
2023/10/19 09:06:17;;;;;;;24.30;19.48;;;9.60;99.90;;;;;;4976462;28;20251;-80
2023/10/19 09:11:33;;;;;;;21.40;17.33;;;9.60;99.90;;;;;;4975668;28;20219;-81
2023/10/19 09:14:00;;;;;;;22.20;18.30;;;9.70;99.90;;;;;;4975870;28;20625;-81
2023/10/19 09:16:30;;;;;;;22.85;17.50;;;9.70;99.90;;;;;;4977153;28;20227;-81
2023/10/19 09:18:59;;;;;;;25.65;17.45;;;9.80;99.90;;;;;;4976045;28;20681;-84
2023/10/19 09:21:27;;;;;;;23.10;18.15;;;9.90;99.90;;;;;;4976912;28;20549;-81
2023/10/19 09:23:56;;;;;;;28.17;19.98;;;9.90;99.90;;;;;;4975676;28;20223;-83
2023/10/19 09:26:24;;;;;;;23.15;18.83;;;9.90;99.90;;;;;;4976114;28;20293;-80
2023/10/19 09:28:57;;;;;;;20.67;18.08;;;9.90;99.90;;;;;;4976658;28;20242;-84
2023/10/19 09:31:25;;;;;;;21.02;18.75;;;9.90;99.90;;;;;;4976724;28;20235;-84
2023/10/19 09:36:32;;;;;;;21.88;17.45;;;9.90;99.90;;;;;;4981485;23;20230;-82
2023/10/19 09:39:00;;;;;;;22.90;17.17;;;9.90;99.90;;;;;;4975941;28;20568;-80
2023/10/19 09:41:29;;;;;;;23.00;18.13;;;9.90;99.90;;;;;;4977170;28;20262;-85
2023/10/19 09:44:10;;;;;;;28.55;19.65;;;9.90;99.90;;;;;;4977075;28;20246;-80
2023/10/19 09:46:41;;;;;;;24.70;18.77;;;9.90;99.90;;;;;;4957885;28;20320;-81
2023/10/19 09:49:13;;;;;;;25.58;19.10;;;9.90;99.90;;;;;;4957734;29;20537;-80
2023/10/19 09:51:44;;;;;;;23.40;17.75;;;9.90;99.90;;;;;;4956846;29;20294;-81
2023/10/19 09:54:21;;;;;;;22.90;18.13;;;10.00;99.90;;;;;;4956242;29;20674;-81
2023/10/19 09:56:53;;;;;;;20.60;17.65;;;10.00;99.90;;;;;;4961117;29;20227;-80
2023/10/19 09:59:27;;;;;;;23.35;16.60;;;10.10;99.90;;;;;;4962506;29;20272;-85
2023/10/19 10:02:12;;;;;;;21.35;18.17;;;10.20;99.90;;;;;;4973082;29;20207;-84
2023/10/19 10:04:39;;;;;;;28.50;22.20;;;10.30;99.90;;;;;;4971129;29;20232;-83
2023/10/19 10:07:09;;;;;;;25.00;21.15;;;10.20;99.90;;;;;;4970956;29;20238;-84
2023/10/19 10:16:17;;;;;;;20.67;16.48;;;10.20;99.90;;;;;;5095733;27;20626;-85
2023/10/19 10:18:48;;;;;;;21.02;17.70;;;10.30;99.90;;;;;;5091199;28;20223;-85
2023/10/19 10:21:16;;;;;;;22.55;18.83;;;10.40;99.90;;;;;;5096961;28;20246;-86
2023/10/19 10:23:48;;;;;;;21.10;18.63;;;10.40;99.90;;;;;;5091391;28;20223;-86
2023/10/19 10:26:16;;;;;;;27.65;19.10;;;10.40;99.90;;;;;;5090278;28;20727;-84
2023/10/19 10:28:48;;;;;;;25.67;20.92;;;10.40;99.90;;;;;;5089974;28;20222;-84
2023/10/19 10:31:21;;;;;;;25.90;18.00;;;10.40;99.90;;;;;;5092156;28;20583;-84
2023/10/19 10:33:51;;;;;;;23.50;19.63;;;10.40;99.90;;;;;;5092890;28;20297;-82
2023/10/19 10:36:19;;;;;;;30.17;20.80;;;10.30;99.90;;;;;;5102319;28;20549;-80
2023/10/19 10:38:47;;;;;;;21.75;18.55;;;10.40;99.90;;;;;;5106460;28;20219;-80
2023/10/19 10:41:22;;;;;;;23.15;20.02;;;10.40;99.90;;;;;;5104945;28;20687;-81
2023/10/19 10:43:52;;;;;;;28.60;22.00;;;10.40;99.90;;;;;;5086603;28;20239;-81
2023/10/19 10:46:27;;;;;;;23.50;19.77;;;10.40;99.90;;;;;;5087733;28;20248;-82
2023/10/19 10:48:54;;;;;;;24.08;20.15;;;10.50;99.90;;;;;;5080849;28;20219;-80
2023/10/19 10:51:23;;;;;;;22.98;19.85;;;10.50;99.90;;;;;;5073413;28;20224;-85
2023/10/19 10:53:52;;;;;;;30.00;20.67;;;10.50;99.90;;;;;;5072570;28;20706;-85
2023/10/19 10:56:20;;;;;;;26.20;19.67;;;10.30;99.90;;;;;;5070402;28;20228;-84
2023/10/19 10:58:48;;;;;;;29.38;21.95;;;10.40;99.90;;;;;;5070296;28;20701;-81
2023/10/19 11:01:44;;;;;;;26.27;21.13;;;10.40;99.90;;;;;;5069156;28;20262;-81
2023/10/19 11:04:13;;;;;;;28.00;23.63;;;10.40;99.90;;;;;;5062711;28;20234;-85
2023/10/19 11:06:50;;;;;;;25.85;20.08;;;10.30;99.90;;;;;;5069628;28;20223;-85
2023/10/19 11:09:19;;;;;;;27.83;21.70;;;10.20;99.90;;;;;;5069869;28;20224;-81
2023/10/19 11:11:53;;;;;;;23.85;21.27;;;10.10;99.90;;;;;;5077263;28;20228;-81
2023/10/19 11:14:55;;;;;;;30.52;20.55;;;10.10;99.90;;;;;;5075821;28;20234;-81
2023/10/19 11:17:30;;;;;;;29.88;20.95;;;10.00;99.90;;;;;;5068960;28;20231;-81
2023/10/19 11:19:57;;;;;;;25.40;21.90;;;10.00;99.90;;;;;;5069639;28;20576;-81
2023/10/19 11:22:26;;;;;;;30.55;23.90;;;10.00;99.90;;;;;;5069282;28;20228;-81
2023/10/19 11:24:54;;;;;;;28.88;22.55;;;10.00;99.90;;;;;;5069171;28;20224;-81
2023/10/19 11:27:28;;;;;;;28.33;21.17;;;10.00;99.90;;;;;;5056848;28;20224;-81
2023/10/19 11:29:56;;;;;;;34.25;22.63;;;10.00;99.90;;;;;;5056306;28;20224;-81
2023/10/19 11:32:33;;;;;;;28.02;22.13;;;10.00;99.90;;;;;;5056206;28;20238;-81
2023/10/19 11:35:01;;;;;;;29.52;21.02;;;10.00;99.90;;;;;;5056050;28;20224;-82
2023/10/19 11:37:28;;;;;;;23.98;19.70;;;10.00;99.90;;;;;;5054554;28;20568;-81
2023/10/19 11:39:56;;;;;;;24.65;22.00;;;10.10;99.90;;;;;;5065819;28;20224;-85
2023/10/19 11:42:23;;;;;;;24.95;21.98;;;10.10;99.90;;;;;;5060070;28;20248;-82
2023/10/19 11:44:50;;;;;;;31.17;22.58;;;10.10;99.90;;;;;;5055357;28;20600;-84
2023/10/19 11:47:17;;;;;;;39.85;30.15;;;10.00;99.90;;;;;;5056717;28;20229;-84
2023/10/19 11:49:48;;;;;;;25.77;22.50;;;9.90;99.90;;;;;;5056177;28;20224;-85
2023/10/19 11:52:15;;;;;;;27.35;21.65;;;10.00;99.90;;;;;;5056142;28;20293;-84
2023/10/19 11:54:42;;;;;;;28.52;22.83;;;10.00;99.90;;;;;;5055701;28;20682;-84
2023/10/19 11:57:09;;;;;;;29.40;23.08;;;10.00;99.90;;;;;;5055643;28;20247;-81
2023/10/19 11:59:36;;;;;;;28.38;23.98;;;10.00;99.90;;;;;;5055399;28;20354;-85
2023/10/19 12:02:06;;;;;;;33.42;23.67;;;10.00;99.90;;;;;;5056466;28;20231;-84
2023/10/19 12:04:36;;;;;;;32.33;23.95;;;9.90;99.90;;;;;;5068885;28;20248;-80
2023/10/19 12:07:09;;;;;;;36.55;26.52;;;9.90;99.90;;;;;;5047098;28;20227;-81
2023/10/19 12:09:38;;;;;;;28.15;23.48;;;9.90;99.90;;;;;;5047722;28;20244;-81
2023/10/19 12:12:09;;;;;;;35.42;26.38;;;9.90;99.90;;;;;;5055725;28;20228;-85
2023/10/19 12:14:38;;;;;;;29.95;25.08;;;9.90;99.90;;;;;;5054704;28;20728;-81
2023/10/19 12:17:13;;;;;;;31.52;26.70;;;10.00;99.90;;;;;;5055524;28;20255;-81
2023/10/19 12:19:41;;;;;;;30.42;23.42;;;9.90;99.90;;;;;;5037796;28;20228;-82
2023/10/19 12:22:13;;;;;;;28.48;25.40;;;10.00;99.90;;;;;;5055817;28;20229;-81
2023/10/19 12:24:46;;;;;;;31.50;25.33;;;9.90;99.90;;;;;;5054370;28;20233;-81
2023/10/19 12:27:14;;;;;;;27.23;22.98;;;9.90;99.90;;;;;;5055945;28;20229;-81
2023/10/19 12:29:43;;;;;;;29.98;24.00;;;10.00;99.90;;;;;;5055419;28;20239;-80
2023/10/19 12:32:12;;;;;;;29.58;23.90;;;10.00;99.90;;;;;;5055817;28;20227;-81
2023/10/19 12:34:42;;;;;;;31.10;26.40;;;10.10;99.90;;;;;;5054666;28;20235;-81
2023/10/19 12:37:12;;;;;;;32.97;24.83;;;10.20;99.90;;;;;;5058282;28;20255;-81
2023/10/19 12:39:45;;;;;;;32.42;24.38;;;10.10;99.90;;;;;;5054623;28;20303;-81
2023/10/19 12:42:15;;;;;;;33.75;26.23;;;10.10;99.90;;;;;;5054548;28;20225;-82
2023/10/19 12:44:43;;;;;;;27.13;23.80;;;10.10;99.90;;;;;;5054229;28;20221;-82
2023/10/19 12:47:12;;;;;;;28.88;25.80;;;10.20;99.90;;;;;;5055207;28;20220;-85
2023/10/19 12:49:40;;;;;;;26.55;23.60;;;10.20;99.90;;;;;;5056033;28;20559;-84
2023/10/19 12:52:08;;;;;;;29.40;26.02;;;10.10;99.90;;;;;;5051297;28;20623;-84
2023/10/19 12:54:37;;;;;;;28.92;24.63;;;10.20;99.90;;;;;;5055880;28;20231;-86
2023/10/19 12:57:06;;;;;;;28.45;24.70;;;10.20;99.90;;;;;;5061573;28;20585;-85
2023/10/19 12:59:38;;;;;;;28.27;23.70;;;10.20;99.90;;;;;;5055320;28;20231;-85
2023/10/19 13:02:08;;;;;;;31.80;25.23;;;10.30;99.90;;;;;;5055519;28;20228;-84
2023/10/19 13:04:50;;;;;;;30.20;23.88;;;10.20;99.90;;;;;;5055875;28;20231;-85
2023/10/19 13:07:17;;;;;;;31.35;25.45;;;10.10;99.90;;;;;;5055387;28;20229;-85
2023/10/19 13:09:46;;;;;;;30.38;25.98;;;10.20;99.90;;;;;;5055381;28;20220;-83